sensor_id;sensor_type;location;lat;lon;timestamp;P1;durP1;ratioP1;P2;durP2;ratioP2
56752;SDS011;42627;42.646;23.642;2023-08-21T00:01:49;6.40;;;4.10;;
56752;SDS011;42627;42.646;23.642;2023-08-21T00:11:30;4.90;;;3.40;;
56752;SDS011;42627;42.646;23.642;2023-08-21T00:13:31;5.40;;;3.70;;
56752;SDS011;42627;42.646;23.642;2023-08-21T00:15:32;6.60;;;3.97;;
56752;SDS011;42627;42.646;23.642;2023-08-21T00:17:33;5.95;;;3.75;;
56752;SDS011;42627;42.646;23.642;2023-08-21T00:19:34;6.53;;;3.60;;
56752;SDS011;42627;42.646;23.642;2023-08-21T00:21:35;7.05;;;3.95;;
56752;SDS011;42627;42.646;23.642;2023-08-21T00:23:36;8.52;;;3.50;;
56752;SDS011;42627;42.646;23.642;2023-08-21T00:25:38;9.82;;;3.75;;
56752;SDS011;42627;42.646;23.642;2023-08-21T00:27:39;9.27;;;3.85;;
56752;SDS011;42627;42.646;23.642;2023-08-21T00:29:40;5.57;;;3.78;;
56752;SDS011;42627;42.646;23.642;2023-08-21T00:31:41;7.68;;;4.13;;
56752;SDS011;42627;42.646;23.642;2023-08-21T00:33:42;7.40;;;3.85;;
56752;SDS011;42627;42.646;23.642;2023-08-21T00:35:43;8.70;;;4.32;;
56752;SDS011;42627;42.646;23.642;2023-08-21T00:44:58;6.57;;;3.97;;
56752;SDS011;42627;42.646;23.642;2023-08-21T00:46:59;8.02;;;4.68;;
56752;SDS011;42627;42.646;23.642;2023-08-21T00:49:01;6.38;;;3.78;;
56752;SDS011;42627;42.646;23.642;2023-08-21T00:51:03;8.32;;;3.95;;
56752;SDS011;42627;42.646;23.642;2023-08-21T00:55:40;6.65;;;4.03;;
56752;SDS011;42627;42.646;23.642;2023-08-21T00:57:41;6.90;;;3.75;;
56752;SDS011;42627;42.646;23.642;2023-08-21T00:59:43;7.30;;;3.67;;
56752;SDS011;42627;42.646;23.642;2023-08-21T01:01:44;5.93;;;3.75;;
56752;SDS011;42627;42.646;23.642;2023-08-21T01:03:45;9.23;;;4.72;;
56752;SDS011;42627;42.646;23.642;2023-08-21T01:05:46;7.93;;;4.32;;
56752;SDS011;42627;42.646;23.642;2023-08-21T01:10:16;6.53;;;3.83;;
56752;SDS011;42627;42.646;23.642;2023-08-21T01:12:39;7.50;;;3.97;;
56752;SDS011;42627;42.646;23.642;2023-08-21T01:14:45;7.03;;;4.20;;
56752;SDS011;42627;42.646;23.642;2023-08-21T01:16:50;6.72;;;3.85;;
56752;SDS011;42627;42.646;23.642;2023-08-21T01:24:03;8.35;;;4.00;;
56752;SDS011;42627;42.646;23.642;2023-08-21T01:26:04;7.38;;;4.15;;
56752;SDS011;42627;42.646;23.642;2023-08-21T01:28:05;7.20;;;4.30;;
56752;SDS011;42627;42.646;23.642;2023-08-21T01:30:06;6.78;;;4.18;;
56752;SDS011;42627;42.646;23.642;2023-08-21T01:34:10;7.53;;;4.20;;
56752;SDS011;42627;42.646;23.642;2023-08-21T01:36:12;6.20;;;4.28;;
56752;SDS011;42627;42.646;23.642;2023-08-21T01:38:25;7.90;;;4.82;;
56752;SDS011;42627;42.646;23.642;2023-08-21T01:40:26;7.68;;;4.07;;
56752;SDS011;42627;42.646;23.642;2023-08-21T01:42:27;7.13;;;3.90;;
56752;SDS011;42627;42.646;23.642;2023-08-21T01:44:28;8.63;;;4.55;;
56752;SDS011;42627;42.646;23.642;2023-08-21T01:46:29;7.28;;;4.53;;
56752;SDS011;42627;42.646;23.642;2023-08-21T01:56:06;6.20;;;3.78;;
56752;SDS011;42627;42.646;23.642;2023-08-21T01:58:07;7.25;;;4.22;;
56752;SDS011;42627;42.646;23.642;2023-08-21T02:00:08;5.97;;;3.65;;
56752;SDS011;42627;42.646;23.642;2023-08-21T02:02:09;9.13;;;4.18;;
56752;SDS011;42627;42.646;23.642;2023-08-21T02:04:10;7.90;;;4.38;;
56752;SDS011;42627;42.646;23.642;2023-08-21T02:06:11;6.68;;;4.53;;
56752;SDS011;42627;42.646;23.642;2023-08-21T02:08:31;6.32;;;3.95;;
56752;SDS011;42627;42.646;23.642;2023-08-21T02:10:35;6.53;;;3.78;;
56752;SDS011;42627;42.646;23.642;2023-08-21T02:12:36;6.25;;;3.90;;
56752;SDS011;42627;42.646;23.642;2023-08-21T02:14:37;7.30;;;4.18;;
56752;SDS011;42627;42.646;23.642;2023-08-21T02:16:38;7.10;;;4.30;;
56752;SDS011;42627;42.646;23.642;2023-08-21T02:18:39;7.85;;;4.47;;
56752;SDS011;42627;42.646;23.642;2023-08-21T02:20:40;7.43;;;4.20;;
56752;SDS011;42627;42.646;23.642;2023-08-21T02:22:41;7.38;;;4.60;;
56752;SDS011;42627;42.646;23.642;2023-08-21T02:29:40;8.05;;;4.38;;
56752;SDS011;42627;42.646;23.642;2023-08-21T02:31:41;8.20;;;5.47;;
56752;SDS011;42627;42.646;23.642;2023-08-21T02:33:42;7.90;;;4.45;;
56752;SDS011;42627;42.646;23.642;2023-08-21T02:35:43;8.10;;;4.35;;
56752;SDS011;42627;42.646;23.642;2023-08-21T02:37:44;7.65;;;4.40;;
56752;SDS011;42627;42.646;23.642;2023-08-21T02:39:45;7.40;;;4.40;;
56752;SDS011;42627;42.646;23.642;2023-08-21T02:41:46;6.15;;;3.28;;
56752;SDS011;42627;42.646;23.642;2023-08-21T02:43:50;9.95;;;4.57;;
56752;SDS011;42627;42.646;23.642;2023-08-21T02:45:51;5.15;;;3.60;;
56752;SDS011;42627;42.646;23.642;2023-08-21T02:47:52;6.07;;;3.97;;
56752;SDS011;42627;42.646;23.642;2023-08-21T02:49:53;7.40;;;3.67;;
56752;SDS011;42627;42.646;23.642;2023-08-21T02:51:54;7.25;;;4.30;;
56752;SDS011;42627;42.646;23.642;2023-08-21T02:53:55;7.20;;;4.40;;
56752;SDS011;42627;42.646;23.642;2023-08-21T02:55:56;6.75;;;4.22;;
56752;SDS011;42627;42.646;23.642;2023-08-21T03:05:20;6.55;;;3.60;;
56752;SDS011;42627;42.646;23.642;2023-08-21T03:07:21;7.43;;;4.20;;
56752;SDS011;42627;42.646;23.642;2023-08-21T03:09:22;6.03;;;3.97;;
56752;SDS011;42627;42.646;23.642;2023-08-21T03:11:23;7.20;;;4.20;;
56752;SDS011;42627;42.646;23.642;2023-08-21T03:13:24;7.30;;;4.40;;
56752;SDS011;42627;42.646;23.642;2023-08-21T03:15:25;7.43;;;4.50;;
56752;SDS011;42627;42.646;23.642;2023-08-21T03:19:45;7.40;;;4.25;;
56752;SDS011;42627;42.646;23.642;2023-08-21T03:21:46;9.05;;;4.90;;
56752;SDS011;42627;42.646;23.642;2023-08-21T03:23:47;6.95;;;4.28;;
56752;SDS011;42627;42.646;23.642;2023-08-21T03:25:51;7.30;;;4.68;;
56752;SDS011;42627;42.646;23.642;2023-08-21T03:30:30;8.32;;;4.53;;
56752;SDS011;42627;42.646;23.642;2023-08-21T03:34:51;8.05;;;4.65;;
56752;SDS011;42627;42.646;23.642;2023-08-21T03:36:52;7.72;;;4.47;;
56752;SDS011;42627;42.646;23.642;2023-08-21T03:38:53;9.05;;;4.43;;
56752;SDS011;42627;42.646;23.642;2023-08-21T03:40:54;8.25;;;4.70;;
56752;SDS011;42627;42.646;23.642;2023-08-21T03:42:55;8.45;;;4.15;;
56752;SDS011;42627;42.646;23.642;2023-08-21T03:44:56;10.23;;;5.30;;
56752;SDS011;42627;42.646;23.642;2023-08-21T03:49:17;6.93;;;4.07;;
56752;SDS011;42627;42.646;23.642;2023-08-21T03:51:18;9.35;;;4.90;;
56752;SDS011;42627;42.646;23.642;2023-08-21T03:53:19;8.52;;;4.80;;
56752;SDS011;42627;42.646;23.642;2023-08-21T03:55:20;8.80;;;4.65;;
56752;SDS011;42627;42.646;23.642;2023-08-21T04:07:07;7.35;;;4.65;;
56752;SDS011;42627;42.646;23.642;2023-08-21T04:09:08;7.25;;;4.60;;
56752;SDS011;42627;42.646;23.642;2023-08-21T04:13:30;10.15;;;4.85;;
56752;SDS011;42627;42.646;23.642;2023-08-21T04:15:31;7.32;;;4.75;;
56752;SDS011;42627;42.646;23.642;2023-08-21T04:19:55;9.07;;;4.15;;
56752;SDS011;42627;42.646;23.642;2023-08-21T04:21:56;8.50;;;4.57;;
56752;SDS011;42627;42.646;23.642;2023-08-21T04:23:57;8.52;;;4.63;;
56752;SDS011;42627;42.646;23.642;2023-08-21T04:26:01;8.18;;;4.93;;
56752;SDS011;42627;42.646;23.642;2023-08-21T04:33:18;8.20;;;3.83;;
56752;SDS011;42627;42.646;23.642;2023-08-21T04:35:19;7.55;;;4.28;;
56752;SDS011;42627;42.646;23.642;2023-08-21T04:37:20;7.43;;;4.25;;
56752;SDS011;42627;42.646;23.642;2023-08-21T04:39:21;9.07;;;4.53;;
56752;SDS011;42627;42.646;23.642;2023-08-21T04:41:22;7.60;;;4.63;;
56752;SDS011;42627;42.646;23.642;2023-08-21T04:43:23;8.18;;;4.32;;
56752;SDS011;42627;42.646;23.642;2023-08-21T04:45:24;6.40;;;4.28;;
56752;SDS011;42627;42.646;23.642;2023-08-21T04:49:45;7.65;;;4.30;;
56752;SDS011;42627;42.646;23.642;2023-08-21T04:51:46;7.13;;;4.15;;
56752;SDS011;42627;42.646;23.642;2023-08-21T04:53:47;9.27;;;4.78;;
56752;SDS011;42627;42.646;23.642;2023-08-21T04:55:48;8.90;;;4.63;;
56752;SDS011;42627;42.646;23.642;2023-08-21T05:02:54;8.48;;;4.45;;
56752;SDS011;42627;42.646;23.642;2023-08-21T05:04:55;9.68;;;4.20;;
56752;SDS011;42627;42.646;23.642;2023-08-21T05:06:56;8.93;;;4.78;;
56752;SDS011;42627;42.646;23.642;2023-08-21T05:08:57;7.55;;;4.50;;
56752;SDS011;42627;42.646;23.642;2023-08-21T05:10:59;8.40;;;4.82;;
56752;SDS011;42627;42.646;23.642;2023-08-21T05:13:01;8.90;;;4.75;;
56752;SDS011;42627;42.646;23.642;2023-08-21T05:15:04;7.85;;;4.47;;
56752;SDS011;42627;42.646;23.642;2023-08-21T05:17:17;6.50;;;3.97;;
56752;SDS011;42627;42.646;23.642;2023-08-21T05:19:20;7.07;;;4.35;;
56752;SDS011;42627;42.646;23.642;2023-08-21T05:21:21;8.25;;;4.45;;
56752;SDS011;42627;42.646;23.642;2023-08-21T05:23:22;6.55;;;4.35;;
56752;SDS011;42627;42.646;23.642;2023-08-21T05:25:23;8.13;;;5.05;;
56752;SDS011;42627;42.646;23.642;2023-08-21T05:32:59;9.50;;;4.35;;
56752;SDS011;42627;42.646;23.642;2023-08-21T05:35:00;7.28;;;4.18;;
56752;SDS011;42627;42.646;23.642;2023-08-21T05:37:01;7.13;;;4.47;;
56752;SDS011;42627;42.646;23.642;2023-08-21T05:39:02;7.93;;;4.53;;
56752;SDS011;42627;42.646;23.642;2023-08-21T05:41:05;8.77;;;4.63;;
56752;SDS011;42627;42.646;23.642;2023-08-21T05:43:06;8.30;;;4.40;;
56752;SDS011;42627;42.646;23.642;2023-08-21T05:49:37;7.72;;;4.65;;
56752;SDS011;42627;42.646;23.642;2023-08-21T05:51:38;10.27;;;4.28;;
56752;SDS011;42627;42.646;23.642;2023-08-21T05:53:39;10.27;;;4.80;;
56752;SDS011;42627;42.646;23.642;2023-08-21T05:55:40;7.53;;;4.50;;
56752;SDS011;42627;42.646;23.642;2023-08-21T05:57:41;8.07;;;4.95;;
56752;SDS011;42627;42.646;23.642;2023-08-21T05:59:43;8.95;;;5.28;;
56752;SDS011;42627;42.646;23.642;2023-08-21T06:09:08;10.98;;;5.63;;
56752;SDS011;42627;42.646;23.642;2023-08-21T06:11:09;11.02;;;6.15;;
56752;SDS011;42627;42.646;23.642;2023-08-21T06:13:10;13.60;;;7.22;;
56752;SDS011;42627;42.646;23.642;2023-08-21T06:15:11;14.35;;;6.30;;
56752;SDS011;42627;42.646;23.642;2023-08-21T06:17:26;13.70;;;6.20;;
56752;SDS011;42627;42.646;23.642;2023-08-21T06:19:28;13.82;;;6.55;;
56752;SDS011;42627;42.646;23.642;2023-08-21T06:21:29;10.50;;;5.97;;
56752;SDS011;42627;42.646;23.642;2023-08-21T06:23:32;12.23;;;6.53;;
56752;SDS011;42627;42.646;23.642;2023-08-21T06:25:33;12.95;;;6.28;;
56752;SDS011;42627;42.646;23.642;2023-08-21T06:27:34;9.35;;;5.63;;
56752;SDS011;42627;42.646;23.642;2023-08-21T06:29:35;11.07;;;5.35;;
56752;SDS011;42627;42.646;23.642;2023-08-21T06:31:37;10.60;;;5.85;;
56752;SDS011;42627;42.646;23.642;2023-08-21T06:33:38;10.57;;;6.15;;
56752;SDS011;42627;42.646;23.642;2023-08-21T06:35:39;9.95;;;5.25;;
56752;SDS011;42627;42.646;23.642;2023-08-21T06:37:40;9.23;;;4.88;;
56752;SDS011;42627;42.646;23.642;2023-08-21T06:39:41;9.60;;;5.13;;
56752;SDS011;42627;42.646;23.642;2023-08-21T06:41:43;11.65;;;5.57;;
56752;SDS011;42627;42.646;23.642;2023-08-21T06:43:45;16.15;;;5.15;;
56752;SDS011;42627;42.646;23.642;2023-08-21T06:45:46;9.52;;;5.57;;
56752;SDS011;42627;42.646;23.642;2023-08-21T06:50:06;7.32;;;4.85;;
56752;SDS011;42627;42.646;23.642;2023-08-21T06:52:09;9.55;;;5.15;;
56752;SDS011;42627;42.646;23.642;2023-08-21T06:54:10;7.18;;;4.40;;
56752;SDS011;42627;42.646;23.642;2023-08-21T06:56:11;9.00;;;5.75;;
56752;SDS011;42627;42.646;23.642;2023-08-21T07:03:17;8.00;;;4.63;;
56752;SDS011;42627;42.646;23.642;2023-08-21T07:05:18;6.57;;;4.05;;
56752;SDS011;42627;42.646;23.642;2023-08-21T07:07:19;7.47;;;4.55;;
56752;SDS011;42627;42.646;23.642;2023-08-21T07:09:20;8.32;;;4.53;;
56752;SDS011;42627;42.646;23.642;2023-08-21T07:11:21;7.32;;;3.83;;
56752;SDS011;42627;42.646;23.642;2023-08-21T07:13:22;7.25;;;4.35;;
56752;SDS011;42627;42.646;23.642;2023-08-21T07:15:23;8.77;;;4.35;;
56752;SDS011;42627;42.646;23.642;2023-08-21T07:19:35;7.22;;;4.57;;
56752;SDS011;42627;42.646;23.642;2023-08-21T07:21:36;8.82;;;4.20;;
56752;SDS011;42627;42.646;23.642;2023-08-21T07:23:38;8.00;;;4.25;;
56752;SDS011;42627;42.646;23.642;2023-08-21T07:25:39;8.02;;;3.70;;
56752;SDS011;42627;42.646;23.642;2023-08-21T07:27:40;6.95;;;3.65;;
56752;SDS011;42627;42.646;23.642;2023-08-21T07:29:41;7.07;;;3.85;;
56752;SDS011;42627;42.646;23.642;2023-08-21T07:31:42;12.85;;;4.57;;
56752;SDS011;42627;42.646;23.642;2023-08-21T07:38:43;6.30;;;4.03;;
56752;SDS011;42627;42.646;23.642;2023-08-21T07:40:44;7.25;;;3.92;;
56752;SDS011;42627;42.646;23.642;2023-08-21T07:42:45;8.07;;;4.38;;
56752;SDS011;42627;42.646;23.642;2023-08-21T07:44:46;7.53;;;4.00;;
56752;SDS011;42627;42.646;23.642;2023-08-21T07:46:59;11.52;;;4.82;;
56752;SDS011;42627;42.646;23.642;2023-08-21T07:49:01;6.72;;;3.80;;
56752;SDS011;42627;42.646;23.642;2023-08-21T07:51:05;6.40;;;3.85;;
56752;SDS011;42627;42.646;23.642;2023-08-21T07:53:05;6.65;;;4.30;;
56752;SDS011;42627;42.646;23.642;2023-08-21T07:55:07;8.20;;;3.83;;
56752;SDS011;42627;42.646;23.642;2023-08-21T07:57:08;9.15;;;4.07;;
56752;SDS011;42627;42.646;23.642;2023-08-21T07:59:09;6.43;;;3.70;;
56752;SDS011;42627;42.646;23.642;2023-08-21T08:01:10;8.25;;;4.07;;
56752;SDS011;42627;42.646;23.642;2023-08-21T08:03:26;7.13;;;4.00;;
56752;SDS011;42627;42.646;23.642;2023-08-21T08:05:27;6.72;;;3.88;;
56752;SDS011;42627;42.646;23.642;2023-08-21T08:07:28;6.18;;;3.55;;
56752;SDS011;42627;42.646;23.642;2023-08-21T08:09:29;8.65;;;3.88;;
56752;SDS011;42627;42.646;23.642;2023-08-21T08:11:30;6.95;;;4.30;;
56752;SDS011;42627;42.646;23.642;2023-08-21T08:18:37;8.93;;;4.05;;
56752;SDS011;42627;42.646;23.642;2023-08-21T08:20:39;8.95;;;4.05;;
56752;SDS011;42627;42.646;23.642;2023-08-21T08:22:40;10.65;;;3.50;;
56752;SDS011;42627;42.646;23.642;2023-08-21T08:24:41;6.93;;;3.47;;
56752;SDS011;42627;42.646;23.642;2023-08-21T08:26:42;6.38;;;3.80;;
56752;SDS011;42627;42.646;23.642;2023-08-21T08:28:44;11.73;;;3.83;;
56752;SDS011;42627;42.646;23.642;2023-08-21T08:30:45;7.80;;;4.03;;
56752;SDS011;42627;42.646;23.642;2023-08-21T08:32:55;6.13;;;4.10;;
56752;SDS011;42627;42.646;23.642;2023-08-21T08:34:59;5.53;;;3.85;;
56752;SDS011;42627;42.646;23.642;2023-08-21T08:37:00;6.07;;;3.47;;
56752;SDS011;42627;42.646;23.642;2023-08-21T08:39:01;16.20;;;4.05;;
56752;SDS011;42627;42.646;23.642;2023-08-21T08:41:02;8.57;;;4.03;;
56752;SDS011;42627;42.646;23.642;2023-08-21T08:43:05;8.98;;;4.28;;
56752;SDS011;42627;42.646;23.642;2023-08-21T08:45:07;6.70;;;3.65;;
56752;SDS011;42627;42.646;23.642;2023-08-21T08:47:23;8.68;;;3.90;;
56752;SDS011;42627;42.646;23.642;2023-08-21T08:52:02;5.15;;;3.17;;
56752;SDS011;42627;42.646;23.642;2023-08-21T08:54:04;5.43;;;3.50;;
56752;SDS011;42627;42.646;23.642;2023-08-21T08:56:05;6.47;;;4.00;;
56752;SDS011;42627;42.646;23.642;2023-08-21T08:58:06;6.05;;;3.03;;
56752;SDS011;42627;42.646;23.642;2023-08-21T09:00:07;5.85;;;3.40;;
56752;SDS011;42627;42.646;23.642;2023-08-21T09:04:27;5.68;;;3.38;;
56752;SDS011;42627;42.646;23.642;2023-08-21T09:06:28;5.80;;;3.20;;
56752;SDS011;42627;42.646;23.642;2023-08-21T09:08:30;5.85;;;3.55;;
56752;SDS011;42627;42.646;23.642;2023-08-21T09:10:30;5.25;;;3.20;;
56752;SDS011;42627;42.646;23.642;2023-08-21T09:12:32;6.43;;;3.60;;
56752;SDS011;42627;42.646;23.642;2023-08-21T09:14:33;6.72;;;3.33;;
56752;SDS011;42627;42.646;23.642;2023-08-21T09:16:34;7.10;;;3.90;;
56752;SDS011;42627;42.646;23.642;2023-08-21T09:18:35;5.85;;;3.42;;
56752;SDS011;42627;42.646;23.642;2023-08-21T09:20:36;5.53;;;3.28;;
56752;SDS011;42627;42.646;23.642;2023-08-21T09:22:37;5.18;;;3.50;;
56752;SDS011;42627;42.646;23.642;2023-08-21T09:24:38;6.68;;;3.40;;
56752;SDS011;42627;42.646;23.642;2023-08-21T09:26:40;7.07;;;3.47;;
56752;SDS011;42627;42.646;23.642;2023-08-21T09:28:41;6.15;;;3.20;;
56752;SDS011;42627;42.646;23.642;2023-08-21T09:30:45;5.10;;;3.40;;
56752;SDS011;42627;42.646;23.642;2023-08-21T09:34:57;4.97;;;3.10;;
56752;SDS011;42627;42.646;23.642;2023-08-21T09:36:59;6.15;;;3.25;;
56752;SDS011;42627;42.646;23.642;2023-08-21T09:39:00;6.72;;;3.65;;
56752;SDS011;42627;42.646;23.642;2023-08-21T09:41:02;6.45;;;3.03;;
56752;SDS011;42627;42.646;23.642;2023-08-21T09:43:03;8.98;;;3.28;;
56752;SDS011;42627;42.646;23.642;2023-08-21T09:45:05;5.25;;;3.10;;
56752;SDS011;42627;42.646;23.642;2023-08-21T09:54:16;6.28;;;3.00;;
56752;SDS011;42627;42.646;23.642;2023-08-21T09:56:18;5.35;;;3.47;;
56752;SDS011;42627;42.646;23.642;2023-08-21T09:58:35;6.43;;;3.15;;
56752;SDS011;42627;42.646;23.642;2023-08-21T10:00:37;4.45;;;2.83;;
56752;SDS011;42627;42.646;23.642;2023-08-21T10:02:39;6.43;;;3.05;;
56752;SDS011;42627;42.646;23.642;2023-08-21T10:04:40;6.05;;;3.47;;
56752;SDS011;42627;42.646;23.642;2023-08-21T10:09:03;7.72;;;2.83;;
56752;SDS011;42627;42.646;23.642;2023-08-21T10:11:05;6.78;;;2.70;;
56752;SDS011;42627;42.646;23.642;2023-08-21T10:13:06;5.47;;;2.70;;
56752;SDS011;42627;42.646;23.642;2023-08-21T10:15:09;4.15;;;2.60;;
56752;SDS011;42627;42.646;23.642;2023-08-21T10:25:01;4.32;;;2.72;;
56752;SDS011;42627;42.646;23.642;2023-08-21T10:29:13;5.95;;;2.67;;
56752;SDS011;42627;42.646;23.642;2023-08-21T10:33:51;6.22;;;3.55;;
56752;SDS011;42627;42.646;23.642;2023-08-21T10:35:51;9.05;;;3.00;;
56752;SDS011;42627;42.646;23.642;2023-08-21T10:40:22;3.90;;;2.70;;
56752;SDS011;42627;42.646;23.642;2023-08-21T10:44:56;4.45;;;2.88;;
56752;SDS011;42627;42.646;23.642;2023-08-21T10:47:05;6.50;;;2.72;;
56752;SDS011;42627;42.646;23.642;2023-08-21T10:49:13;5.82;;;2.63;;
56752;SDS011;42627;42.646;23.642;2023-08-21T10:51:14;4.65;;;2.72;;
56752;SDS011;42627;42.646;23.642;2023-08-21T10:58:25;5.82;;;2.40;;
56752;SDS011;42627;42.646;23.642;2023-08-21T11:00:26;6.82;;;3.03;;
56752;SDS011;42627;42.646;23.642;2023-08-21T11:02:28;5.55;;;2.88;;
56752;SDS011;42627;42.646;23.642;2023-08-21T11:04:29;5.40;;;3.17;;
56752;SDS011;42627;42.646;23.642;2023-08-21T11:06:40;4.68;;;2.55;;
56752;SDS011;42627;42.646;23.642;2023-08-21T11:08:41;4.03;;;2.60;;
56752;SDS011;42627;42.646;23.642;2023-08-21T11:10:42;4.03;;;2.33;;
56752;SDS011;42627;42.646;23.642;2023-08-21T11:13:01;7.05;;;2.58;;
56752;SDS011;42627;42.646;23.642;2023-08-21T11:15:04;4.03;;;2.50;;
56752;SDS011;42627;42.646;23.642;2023-08-21T11:17:07;4.55;;;2.63;;
56752;SDS011;42627;42.646;23.642;2023-08-21T11:19:08;6.47;;;3.13;;
56752;SDS011;42627;42.646;23.642;2023-08-21T11:21:11;4.60;;;2.60;;
56752;SDS011;42627;42.646;23.642;2023-08-21T11:23:12;6.28;;;3.05;;
56752;SDS011;42627;42.646;23.642;2023-08-21T11:25:14;4.68;;;2.80;;
56752;SDS011;42627;42.646;23.642;2023-08-21T11:37:09;5.45;;;2.72;;
56752;SDS011;42627;42.646;23.642;2023-08-21T11:39:10;4.53;;;2.55;;
56752;SDS011;42627;42.646;23.642;2023-08-21T11:41:11;4.22;;;3.00;;
56752;SDS011;42627;42.646;23.642;2023-08-21T11:43:12;5.90;;;3.22;;
56752;SDS011;42627;42.646;23.642;2023-08-21T11:45:13;6.22;;;3.38;;
56752;SDS011;42627;42.646;23.642;2023-08-21T11:49:49;4.70;;;3.03;;
56752;SDS011;42627;42.646;23.642;2023-08-21T11:51:51;4.97;;;2.85;;
56752;SDS011;42627;42.646;23.642;2023-08-21T11:53:52;4.80;;;2.75;;
56752;SDS011;42627;42.646;23.642;2023-08-21T11:55:53;4.93;;;3.03;;
56752;SDS011;42627;42.646;23.642;2023-08-21T11:57:54;4.15;;;2.70;;
56752;SDS011;42627;42.646;23.642;2023-08-21T11:59:55;5.50;;;2.90;;
56752;SDS011;42627;42.646;23.642;2023-08-21T12:09:36;5.68;;;2.60;;
56752;SDS011;42627;42.646;23.642;2023-08-21T12:11:37;4.72;;;2.95;;
56752;SDS011;42627;42.646;23.642;2023-08-21T12:13:38;3.55;;;2.40;;
56752;SDS011;42627;42.646;23.642;2023-08-21T12:15:39;4.40;;;3.08;;
56752;SDS011;42627;42.646;23.642;2023-08-21T12:17:40;7.78;;;2.72;;
56752;SDS011;42627;42.646;23.642;2023-08-21T12:19:41;6.05;;;2.58;;
56752;SDS011;42627;42.646;23.642;2023-08-21T12:21:43;4.65;;;2.70;;
56752;SDS011;42627;42.646;23.642;2023-08-21T12:23:44;7.38;;;3.65;;
56752;SDS011;42627;42.646;23.642;2023-08-21T12:25:45;6.10;;;2.80;;
56752;SDS011;42627;42.646;23.642;2023-08-21T12:27:46;4.95;;;2.75;;
56752;SDS011;42627;42.646;23.642;2023-08-21T12:29:47;5.85;;;2.90;;
56752;SDS011;42627;42.646;23.642;2023-08-21T12:31:48;5.47;;;2.88;;
56752;SDS011;42627;42.646;23.642;2023-08-21T12:33:49;5.80;;;3.10;;
56752;SDS011;42627;42.646;23.642;2023-08-21T12:38:11;5.13;;;2.95;;
56752;SDS011;42627;42.646;23.642;2023-08-21T12:40:12;6.22;;;2.90;;
56752;SDS011;42627;42.646;23.642;2023-08-21T12:42:13;4.47;;;2.58;;
56752;SDS011;42627;42.646;23.642;2023-08-21T12:44:14;5.78;;;2.90;;
56752;SDS011;42627;42.646;23.642;2023-08-21T12:53:40;5.72;;;3.08;;
56752;SDS011;42627;42.646;23.642;2023-08-21T12:55:41;6.40;;;2.78;;
56752;SDS011;42627;42.646;23.642;2023-08-21T12:57:42;5.47;;;3.28;;
56752;SDS011;42627;42.646;23.642;2023-08-21T12:59:43;5.55;;;3.17;;
56752;SDS011;42627;42.646;23.642;2023-08-21T13:01:44;7.43;;;3.25;;
56752;SDS011;42627;42.646;23.642;2023-08-21T13:03:45;4.45;;;2.60;;
56752;SDS011;42627;42.646;23.642;2023-08-21T13:08:06;3.85;;;2.55;;
56752;SDS011;42627;42.646;23.642;2023-08-21T13:10:07;4.70;;;2.60;;
56752;SDS011;42627;42.646;23.642;2023-08-21T13:12:08;5.72;;;3.28;;
56752;SDS011;42627;42.646;23.642;2023-08-21T13:14:12;5.95;;;3.60;;
56752;SDS011;42627;42.646;23.642;2023-08-21T13:16:13;4.82;;;2.83;;
56752;SDS011;42627;42.646;23.642;2023-08-21T13:18:14;5.60;;;3.05;;
56752;SDS011;42627;42.646;23.642;2023-08-21T13:20:15;6.78;;;3.28;;
56752;SDS011;42627;42.646;23.642;2023-08-21T13:29:37;6.20;;;3.05;;
56752;SDS011;42627;42.646;23.642;2023-08-21T13:31:39;6.60;;;2.83;;
56752;SDS011;42627;42.646;23.642;2023-08-21T13:33:44;6.35;;;2.75;;
56752;SDS011;42627;42.646;23.642;2023-08-21T13:35:45;9.20;;;3.20;;
56752;SDS011;42627;42.646;23.642;2023-08-21T13:37:46;4.28;;;2.70;;
56752;SDS011;42627;42.646;23.642;2023-08-21T13:39:47;5.47;;;2.72;;
56752;SDS011;42627;42.646;23.642;2023-08-21T13:46:10;4.47;;;3.00;;
56752;SDS011;42627;42.646;23.642;2023-08-21T13:48:12;7.45;;;3.08;;
56752;SDS011;42627;42.646;23.642;2023-08-21T13:50:13;6.22;;;2.88;;
56752;SDS011;42627;42.646;23.642;2023-08-21T13:52:14;3.70;;;2.40;;
56752;SDS011;42627;42.646;23.642;2023-08-21T13:54:15;4.38;;;2.25;;
56752;SDS011;42627;42.646;23.642;2023-08-21T14:01:25;5.38;;;3.05;;
56752;SDS011;42627;42.646;23.642;2023-08-21T14:03:29;4.82;;;2.97;;
56752;SDS011;42627;42.646;23.642;2023-08-21T14:05:30;3.92;;;2.58;;
56752;SDS011;42627;42.646;23.642;2023-08-21T14:07:31;4.22;;;2.97;;
56752;SDS011;42627;42.646;23.642;2023-08-21T14:09:33;5.53;;;3.03;;
56752;SDS011;42627;42.646;23.642;2023-08-21T14:11:34;6.55;;;3.20;;
56752;SDS011;42627;42.646;23.642;2023-08-21T14:13:35;6.95;;;2.95;;
56752;SDS011;42627;42.646;23.642;2023-08-21T14:17:57;6.65;;;2.35;;
56752;SDS011;42627;42.646;23.642;2023-08-21T14:19:58;5.93;;;2.90;;
56752;SDS011;42627;42.646;23.642;2023-08-21T14:21:59;5.78;;;2.60;;
56752;SDS011;42627;42.646;23.642;2023-08-21T14:24:00;5.00;;;2.85;;
56752;SDS011;42627;42.646;23.642;2023-08-21T14:33:27;5.18;;;2.70;;
56752;SDS011;42627;42.646;23.642;2023-08-21T14:35:28;6.13;;;2.65;;
56752;SDS011;42627;42.646;23.642;2023-08-21T14:37:29;8.85;;;2.83;;
56752;SDS011;42627;42.646;23.642;2023-08-21T14:39:30;5.22;;;2.70;;
56752;SDS011;42627;42.646;23.642;2023-08-21T14:41:31;4.00;;;2.53;;
56752;SDS011;42627;42.646;23.642;2023-08-21T14:43:32;6.13;;;2.97;;
56752;SDS011;42627;42.646;23.642;2023-08-21T14:47:54;3.92;;;2.40;;
56752;SDS011;42627;42.646;23.642;2023-08-21T14:49:56;5.10;;;3.10;;
56752;SDS011;42627;42.646;23.642;2023-08-21T14:51:57;6.18;;;2.92;;
56752;SDS011;42627;42.646;23.642;2023-08-21T14:53:58;7.88;;;2.67;;
56752;SDS011;42627;42.646;23.642;2023-08-21T15:03:37;5.07;;;2.63;;
56752;SDS011;42627;42.646;23.642;2023-08-21T15:05:38;12.98;;;5.05;;
56752;SDS011;42627;42.646;23.642;2023-08-21T15:07:39;6.00;;;2.65;;
56752;SDS011;42627;42.646;23.642;2023-08-21T15:09:40;4.28;;;2.50;;
56752;SDS011;42627;42.646;23.642;2023-08-21T15:11:41;4.35;;;2.30;;
56752;SDS011;42627;42.646;23.642;2023-08-21T15:13:42;4.65;;;2.78;;
56752;SDS011;42627;42.646;23.642;2023-08-21T15:18:08;4.93;;;2.67;;
56752;SDS011;42627;42.646;23.642;2023-08-21T15:20:09;5.25;;;2.85;;
56752;SDS011;42627;42.646;23.642;2023-08-21T15:22:11;4.45;;;2.65;;
56752;SDS011;42627;42.646;23.642;2023-08-21T15:24:13;3.67;;;2.55;;
56752;SDS011;42627;42.646;23.642;2023-08-21T15:33:39;5.35;;;3.05;;
56752;SDS011;42627;42.646;23.642;2023-08-21T15:35:40;4.80;;;2.70;;
56752;SDS011;42627;42.646;23.642;2023-08-21T15:39:51;5.30;;;3.08;;
56752;SDS011;42627;42.646;23.642;2023-08-21T15:41:53;5.25;;;2.85;;
56752;SDS011;42627;42.646;23.642;2023-08-21T15:43:54;5.82;;;3.00;;
56752;SDS011;42627;42.646;23.642;2023-08-21T15:48:14;4.18;;;2.63;;
56752;SDS011;42627;42.646;23.642;2023-08-21T15:50:27;7.15;;;2.80;;
56752;SDS011;42627;42.646;23.642;2023-08-21T15:52:28;7.75;;;3.10;;
56752;SDS011;42627;42.646;23.642;2023-08-21T15:54:30;7.45;;;3.35;;
56752;SDS011;42627;42.646;23.642;2023-08-21T15:56:34;5.68;;;2.75;;
56752;SDS011;42627;42.646;23.642;2023-08-21T16:06:26;8.82;;;2.90;;
56752;SDS011;42627;42.646;23.642;2023-08-21T16:08:27;5.72;;;2.80;;
56752;SDS011;42627;42.646;23.642;2023-08-21T16:13:11;6.00;;;3.13;;
56752;SDS011;42627;42.646;23.642;2023-08-21T16:15:12;10.52;;;2.70;;
56752;SDS011;42627;42.646;23.642;2023-08-21T16:17:13;5.30;;;3.20;;